sensor_id;sensor_type;location;lat;lon;timestamp;pressure;altitude;pressure_sealevel;temperature
22322;BMP180;11328;53.928;18.522;2023-05-29T00:01:54;100743.00;;;13.10
22322;BMP180;11328;53.928;18.522;2023-05-29T00:04:22;100743.00;;;13.00
22322;BMP180;11328;53.928;18.522;2023-05-29T00:06:49;100741.00;;;13.00
22322;BMP180;11328;53.928;18.522;2023-05-29T00:09:17;100743.00;;;13.00
22322;BMP180;11328;53.928;18.522;2023-05-29T00:11:44;100737.00;;;12.90
22322;BMP180;11328;53.928;18.522;2023-05-29T00:14:18;100734.00;;;12.80
22322;BMP180;11328;53.928;18.522;2023-05-29T00:16:46;100731.00;;;12.70
22322;BMP180;11328;53.928;18.522;2023-05-29T00:19:15;100735.00;;;12.70
22322;BMP180;11328;53.928;18.522;2023-05-29T00:21:46;100730.00;;;12.70
22322;BMP180;11328;53.928;18.522;2023-05-29T00:24:15;100736.00;;;12.50
22322;BMP180;11328;53.928;18.522;2023-05-29T00:26:43;100737.00;;;12.50
22322;BMP180;11328;53.928;18.522;2023-05-29T00:29:10;100722.00;;;12.50
22322;BMP180;11328;53.928;18.522;2023-05-29T00:31:37;100723.00;;;12.60
22322;BMP180;11328;53.928;18.522;2023-05-29T00:34:04;100724.00;;;12.70
22322;BMP180;11328;53.928;18.522;2023-05-29T00:36:34;100725.00;;;12.70
22322;BMP180;11328;53.928;18.522;2023-05-29T00:39:01;100732.00;;;12.70
22322;BMP180;11328;53.928;18.522;2023-05-29T00:41:28;100717.00;;;12.70
22322;BMP180;11328;53.928;18.522;2023-05-29T00:43:55;100728.00;;;12.50
22322;BMP180;11328;53.928;18.522;2023-05-29T00:46:23;100727.00;;;12.40
22322;BMP180;11328;53.928;18.522;2023-05-29T00:48:51;100727.00;;;12.30
22322;BMP180;11328;53.928;18.522;2023-05-29T00:51:18;100720.00;;;12.20
22322;BMP180;11328;53.928;18.522;2023-05-29T00:53:46;100719.00;;;12.20
22322;BMP180;11328;53.928;18.522;2023-05-29T00:56:15;100718.00;;;12.30
22322;BMP180;11328;53.928;18.522;2023-05-29T00:58:43;100713.00;;;12.30
22322;BMP180;11328;53.928;18.522;2023-05-29T01:01:11;100716.00;;;12.30
22322;BMP180;11328;53.928;18.522;2023-05-29T01:03:39;100707.00;;;12.30
22322;BMP180;11328;53.928;18.522;2023-05-29T01:06:07;100704.00;;;12.30
22322;BMP180;11328;53.928;18.522;2023-05-29T01:08:34;100707.00;;;12.10
22322;BMP180;11328;53.928;18.522;2023-05-29T01:14:48;100705.00;;;11.80
22322;BMP180;11328;53.928;18.522;2023-05-29T01:17:32;100706.00;;;11.90
22322;BMP180;11328;53.928;18.522;2023-05-29T01:28:56;100713.00;;;11.60
22322;BMP180;11328;53.928;18.522;2023-05-29T01:31:26;100705.00;;;11.60
22322;BMP180;11328;53.928;18.522;2023-05-29T01:33:59;100710.00;;;11.70
22322;BMP180;11328;53.928;18.522;2023-05-29T01:36:27;100708.00;;;11.70
22322;BMP180;11328;53.928;18.522;2023-05-29T01:38:57;100706.00;;;11.70
22322;BMP180;11328;53.928;18.522;2023-05-29T01:41:26;100710.00;;;11.70
22322;BMP180;11328;53.928;18.522;2023-05-29T01:43:53;100708.00;;;11.70
22322;BMP180;11328;53.928;18.522;2023-05-29T01:46:23;100712.00;;;11.60
22322;BMP180;11328;53.928;18.522;2023-05-29T01:48:54;100704.00;;;11.60
22322;BMP180;11328;53.928;18.522;2023-05-29T01:51:22;100699.00;;;11.50
22322;BMP180;11328;53.928;18.522;2023-05-29T01:53:49;100706.00;;;11.50
22322;BMP180;11328;53.928;18.522;2023-05-29T01:56:17;100709.00;;;11.60
22322;BMP180;11328;53.928;18.522;2023-05-29T01:58:45;100695.00;;;11.70
22322;BMP180;11328;53.928;18.522;2023-05-29T02:01:12;100686.00;;;11.80
22322;BMP180;11328;53.928;18.522;2023-05-29T02:03:40;100696.00;;;11.80
22322;BMP180;11328;53.928;18.522;2023-05-29T02:06:07;100695.00;;;11.70
22322;BMP180;11328;53.928;18.522;2023-05-29T02:08:34;100693.00;;;11.60
22322;BMP180;11328;53.928;18.522;2023-05-29T02:11:01;100689.00;;;11.60
22322;BMP180;11328;53.928;18.522;2023-05-29T02:13:28;100681.00;;;11.60
22322;BMP180;11328;53.928;18.522;2023-05-29T02:15:56;100689.00;;;11.40
22322;BMP180;11328;53.928;18.522;2023-05-29T02:18:23;100691.00;;;11.50
22322;BMP180;11328;53.928;18.522;2023-05-29T02:20:50;100691.00;;;11.40
22322;BMP180;11328;53.928;18.522;2023-05-29T02:23:18;100689.00;;;11.40
22322;BMP180;11328;53.928;18.522;2023-05-29T02:25:46;100690.00;;;11.30
22322;BMP180;11328;53.928;18.522;2023-05-29T02:28:14;100681.00;;;11.30
22322;BMP180;11328;53.928;18.522;2023-05-29T02:30:41;100697.00;;;11.30
22322;BMP180;11328;53.928;18.522;2023-05-29T02:33:08;100697.00;;;11.40
22322;BMP180;11328;53.928;18.522;2023-05-29T02:35:36;100695.00;;;11.50
22322;BMP180;11328;53.928;18.522;2023-05-29T02:38:03;100691.00;;;11.60
22322;BMP180;11328;53.928;18.522;2023-05-29T02:40:30;100695.00;;;11.70
22322;BMP180;11328;53.928;18.522;2023-05-29T02:42:58;100691.00;;;11.60
22322;BMP180;11328;53.928;18.522;2023-05-29T02:45:25;100698.00;;;11.60
22322;BMP180;11328;53.928;18.522;2023-05-29T02:47:52;100696.00;;;11.60
22322;BMP180;11328;53.928;18.522;2023-05-29T02:50:19;100684.00;;;11.50
22322;BMP180;11328;53.928;18.522;2023-05-29T02:52:46;100696.00;;;11.50
22322;BMP180;11328;53.928;18.522;2023-05-29T02:55:15;100690.00;;;11.50
22322;BMP180;11328;53.928;18.522;2023-05-29T02:57:42;100692.00;;;11.50
22322;BMP180;11328;53.928;18.522;2023-05-29T03:00:10;100693.00;;;11.60
22322;BMP180;11328;53.928;18.522;2023-05-29T03:02:38;100690.00;;;11.70
22322;BMP180;11328;53.928;18.522;2023-05-29T03:05:06;100694.00;;;11.70
22322;BMP180;11328;53.928;18.522;2023-05-29T03:07:33;100687.00;;;11.80
22322;BMP180;11328;53.928;18.522;2023-05-29T03:10:01;100689.00;;;11.90
22322;BMP180;11328;53.928;18.522;2023-05-29T03:12:28;100691.00;;;12.00
22322;BMP180;11328;53.928;18.522;2023-05-29T03:14:56;100689.00;;;12.10
22322;BMP180;11328;53.928;18.522;2023-05-29T03:17:24;100695.00;;;12.20
22322;BMP180;11328;53.928;18.522;2023-05-29T03:19:52;100698.00;;;12.30
22322;BMP180;11328;53.928;18.522;2023-05-29T03:22:20;100684.00;;;12.30
22322;BMP180;11328;53.928;18.522;2023-05-29T03:24:47;100709.00;;;12.40
22322;BMP180;11328;53.928;18.522;2023-05-29T03:27:14;100703.00;;;12.50
22322;BMP180;11328;53.928;18.522;2023-05-29T03:29:47;100707.00;;;12.60
22322;BMP180;11328;53.928;18.522;2023-05-29T03:32:14;100706.00;;;12.60
22322;BMP180;11328;53.928;18.522;2023-05-29T03:34:41;100713.00;;;12.70
22322;BMP180;11328;53.928;18.522;2023-05-29T03:37:09;100712.00;;;12.90
22322;BMP180;11328;53.928;18.522;2023-05-29T03:39:36;100709.00;;;12.90
22322;BMP180;11328;53.928;18.522;2023-05-29T03:42:03;100703.00;;;12.90
22322;BMP180;11328;53.928;18.522;2023-05-29T03:44:31;100709.00;;;13.00
22322;BMP180;11328;53.928;18.522;2023-05-29T03:46:58;100705.00;;;13.10
22322;BMP180;11328;53.928;18.522;2023-05-29T03:49:25;100710.00;;;13.10
22322;BMP180;11328;53.928;18.522;2023-05-29T03:51:52;100705.00;;;13.20
22322;BMP180;11328;53.928;18.522;2023-05-29T03:54:19;100702.00;;;13.30
22322;BMP180;11328;53.928;18.522;2023-05-29T03:56:47;100708.00;;;13.40
22322;BMP180;11328;53.928;18.522;2023-05-29T03:59:14;100711.00;;;13.50
22322;BMP180;11328;53.928;18.522;2023-05-29T04:01:42;100711.00;;;13.70
22322;BMP180;11328;53.928;18.522;2023-05-29T04:04:09;100715.00;;;13.70
22322;BMP180;11328;53.928;18.522;2023-05-29T04:06:36;100717.00;;;13.70
22322;BMP180;11328;53.928;18.522;2023-05-29T04:09:06;100712.00;;;13.80
22322;BMP180;11328;53.928;18.522;2023-05-29T04:11:34;100720.00;;;13.90
22322;BMP180;11328;53.928;18.522;2023-05-29T04:14:02;100720.00;;;13.90
22322;BMP180;11328;53.928;18.522;2023-05-29T04:16:29;100707.00;;;14.00
22322;BMP180;11328;53.928;18.522;2023-05-29T04:18:57;100718.00;;;14.00
22322;BMP180;11328;53.928;18.522;2023-05-29T04:21:24;100715.00;;;14.20
22322;BMP180;11328;53.928;18.522;2023-05-29T04:23:52;100696.00;;;14.10
22322;BMP180;11328;53.928;18.522;2023-05-29T04:26:22;100719.00;;;14.20
22322;BMP180;11328;53.928;18.522;2023-05-29T04:28:53;100723.00;;;14.20
22322;BMP180;11328;53.928;18.522;2023-05-29T04:31:25;100649.00;;;14.20
22322;BMP180;11328;53.928;18.522;2023-05-29T04:33:54;100724.00;;;14.30
22322;BMP180;11328;53.928;18.522;2023-05-29T04:36:25;100732.00;;;14.40
22322;BMP180;11328;53.928;18.522;2023-05-29T04:38:55;100731.00;;;14.40
22322;BMP180;11328;53.928;18.522;2023-05-29T04:41:25;100729.00;;;14.40
22322;BMP180;11328;53.928;18.522;2023-05-29T04:43:56;100726.00;;;14.50
22322;BMP180;11328;53.928;18.522;2023-05-29T04:46:25;100722.00;;;14.60
22322;BMP180;11328;53.928;18.522;2023-05-29T04:48:52;100735.00;;;14.70
22322;BMP180;11328;53.928;18.522;2023-05-29T04:51:21;100728.00;;;14.80
22322;BMP180;11328;53.928;18.522;2023-05-29T04:53:51;100729.00;;;14.80
22322;BMP180;11328;53.928;18.522;2023-05-29T04:56:19;100735.00;;;14.80
22322;BMP180;11328;53.928;18.522;2023-05-29T04:58:47;100744.00;;;14.90
22322;BMP180;11328;53.928;18.522;2023-05-29T05:01:15;100735.00;;;15.10
22322;BMP180;11328;53.928;18.522;2023-05-29T05:03:42;100716.00;;;15.20
22322;BMP180;11328;53.928;18.522;2023-05-29T05:06:10;100725.00;;;15.10
22322;BMP180;11328;53.928;18.522;2023-05-29T05:08:39;100737.00;;;15.10
22322;BMP180;11328;53.928;18.522;2023-05-29T05:11:06;100734.00;;;15.20
22322;BMP180;11328;53.928;18.522;2023-05-29T05:13:34;100730.00;;;15.50
22322;BMP180;11328;53.928;18.522;2023-05-29T05:16:02;100730.00;;;15.70
22322;BMP180;11328;53.928;18.522;2023-05-29T05:18:29;100740.00;;;16.10
22322;BMP180;11328;53.928;18.522;2023-05-29T05:20:56;100709.00;;;16.50
22322;BMP180;11328;53.928;18.522;2023-05-29T05:23:23;100719.00;;;16.80
22322;BMP180;11328;53.928;18.522;2023-05-29T05:25:51;100729.00;;;17.10
22322;BMP180;11328;53.928;18.522;2023-05-29T05:28:17;100738.00;;;17.50
22322;BMP180;11328;53.928;18.522;2023-05-29T05:30:45;100743.00;;;17.70
22322;BMP180;11328;53.928;18.522;2023-05-29T05:33:12;100748.00;;;17.50
22322;BMP180;11328;53.928;18.522;2023-05-29T05:35:39;100740.00;;;17.60
22322;BMP180;11328;53.928;18.522;2023-05-29T05:38:07;100743.00;;;17.80
22322;BMP180;11328;53.928;18.522;2023-05-29T05:40:34;100743.00;;;18.20
22322;BMP180;11328;53.928;18.522;2023-05-29T05:43:04;100746.00;;;18.50
22322;BMP180;11328;53.928;18.522;2023-05-29T05:45:33;100738.00;;;18.80
22322;BMP180;11328;53.928;18.522;2023-05-29T05:48:00;100747.00;;;19.00
22322;BMP180;11328;53.928;18.522;2023-05-29T05:50:28;100751.00;;;19.10
22322;BMP180;11328;53.928;18.522;2023-05-29T05:52:56;100740.00;;;19.30
22322;BMP180;11328;53.928;18.522;2023-05-29T05:55:23;100733.00;;;19.50
22322;BMP180;11328;53.928;18.522;2023-05-29T05:57:50;100741.00;;;19.50
22322;BMP180;11328;53.928;18.522;2023-05-29T06:00:17;100743.00;;;19.50
22322;BMP180;11328;53.928;18.522;2023-05-29T06:02:45;100747.00;;;19.40
22322;BMP180;11328;53.928;18.522;2023-05-29T06:05:12;100748.00;;;19.50
22322;BMP180;11328;53.928;18.522;2023-05-29T06:07:39;100756.00;;;19.90
22322;BMP180;11328;53.928;18.522;2023-05-29T06:10:07;100760.00;;;19.80
22322;BMP180;11328;53.928;18.522;2023-05-29T06:12:35;100765.00;;;19.80
22322;BMP180;11328;53.928;18.522;2023-05-29T06:15:02;100751.00;;;20.20
22322;BMP180;11328;53.928;18.522;2023-05-29T06:17:31;100756.00;;;20.50
22322;BMP180;11328;53.928;18.522;2023-05-29T06:19:58;100770.00;;;20.90
22322;BMP180;11328;53.928;18.522;2023-05-29T06:22:26;100763.00;;;21.10
22322;BMP180;11328;53.928;18.522;2023-05-29T06:24:53;100766.00;;;21.40
22322;BMP180;11328;53.928;18.522;2023-05-29T06:27:20;100768.00;;;21.10
22322;BMP180;11328;53.928;18.522;2023-05-29T06:29:50;100777.00;;;21.00
22322;BMP180;11328;53.928;18.522;2023-05-29T06:32:17;100772.00;;;20.80
22322;BMP180;11328;53.928;18.522;2023-05-29T06:34:44;100776.00;;;20.60
22322;BMP180;11328;53.928;18.522;2023-05-29T06:37:11;100776.00;;;20.30
22322;BMP180;11328;53.928;18.522;2023-05-29T06:39:38;100785.00;;;19.80
22322;BMP180;11328;53.928;18.522;2023-05-29T06:42:08;100795.00;;;19.90
22322;BMP180;11328;53.928;18.522;2023-05-29T06:44:36;100783.00;;;20.10
22322;BMP180;11328;53.928;18.522;2023-05-29T06:47:05;100776.00;;;20.20
22322;BMP180;11328;53.928;18.522;2023-05-29T06:49:32;100777.00;;;20.20
22322;BMP180;11328;53.928;18.522;2023-05-29T06:51:59;100769.00;;;20.20
22322;BMP180;11328;53.928;18.522;2023-05-29T06:54:27;100777.00;;;20.50
22322;BMP180;11328;53.928;18.522;2023-05-29T06:56:54;100776.00;;;20.60
22322;BMP180;11328;53.928;18.522;2023-05-29T06:59:35;100772.00;;;21.00
22322;BMP180;11328;53.928;18.522;2023-05-29T07:02:03;100774.00;;;21.10
22322;BMP180;11328;53.928;18.522;2023-05-29T07:04:30;100766.00;;;20.90
22322;BMP180;11328;53.928;18.522;2023-05-29T07:06:57;100781.00;;;20.60
22322;BMP180;11328;53.928;18.522;2023-05-29T07:09:25;100770.00;;;20.60
22322;BMP180;11328;53.928;18.522;2023-05-29T07:11:53;100759.00;;;20.70
22322;BMP180;11328;53.928;18.522;2023-05-29T07:14:20;100779.00;;;21.10
22322;BMP180;11328;53.928;18.522;2023-05-29T07:16:49;100776.00;;;21.40
22322;BMP180;11328;53.928;18.522;2023-05-29T07:19:16;100771.00;;;21.80
22322;BMP180;11328;53.928;18.522;2023-05-29T07:21:47;100784.00;;;22.10
22322;BMP180;11328;53.928;18.522;2023-05-29T07:24:15;100778.00;;;22.00
22322;BMP180;11328;53.928;18.522;2023-05-29T07:26:45;100782.00;;;22.10
22322;BMP180;11328;53.928;18.522;2023-05-29T07:29:12;100786.00;;;22.60
22322;BMP180;11328;53.928;18.522;2023-05-29T07:31:40;100778.00;;;22.90
22322;BMP180;11328;53.928;18.522;2023-05-29T07:34:07;100776.00;;;23.20
22322;BMP180;11328;53.928;18.522;2023-05-29T07:36:34;100782.00;;;22.90
22322;BMP180;11328;53.928;18.522;2023-05-29T07:39:02;100782.00;;;23.00
22322;BMP180;11328;53.928;18.522;2023-05-29T07:41:32;100786.00;;;23.30
22322;BMP180;11328;53.928;18.522;2023-05-29T07:43:59;100788.00;;;23.80
22322;BMP180;11328;53.928;18.522;2023-05-29T07:46:27;100761.00;;;23.50
22322;BMP180;11328;53.928;18.522;2023-05-29T07:48:54;100782.00;;;22.70
22322;BMP180;11328;53.928;18.522;2023-05-29T07:51:21;100776.00;;;22.70
22322;BMP180;11328;53.928;18.522;2023-05-29T07:53:48;100772.00;;;23.00
22322;BMP180;11328;53.928;18.522;2023-05-29T07:56:15;100772.00;;;22.80
22322;BMP180;11328;53.928;18.522;2023-05-29T07:58:43;100784.00;;;22.30
22322;BMP180;11328;53.928;18.522;2023-05-29T08:01:10;100773.00;;;22.30
22322;BMP180;11328;53.928;18.522;2023-05-29T08:03:37;100785.00;;;22.60
22322;BMP180;11328;53.928;18.522;2023-05-29T08:06:05;100786.00;;;22.40
22322;BMP180;11328;53.928;18.522;2023-05-29T08:08:32;100798.00;;;22.40
22322;BMP180;11328;53.928;18.522;2023-05-29T08:11:22;100791.00;;;22.20
22322;BMP180;11328;53.928;18.522;2023-05-29T08:13:58;100786.00;;;22.50
22322;BMP180;11328;53.928;18.522;2023-05-29T08:16:25;100796.00;;;22.50
22322;BMP180;11328;53.928;18.522;2023-05-29T08:18:54;100801.00;;;23.00
22322;BMP180;11328;53.928;18.522;2023-05-29T08:21:22;100793.00;;;23.70
22322;BMP180;11328;53.928;18.522;2023-05-29T08:23:49;100795.00;;;24.00
22322;BMP180;11328;53.928;18.522;2023-05-29T08:26:16;100727.00;;;23.40
22322;BMP180;11328;53.928;18.522;2023-05-29T08:28:44;100787.00;;;22.80
22322;BMP180;11328;53.928;18.522;2023-05-29T08:31:11;100796.00;;;22.80
22322;BMP180;11328;53.928;18.522;2023-05-29T08:33:38;100793.00;;;22.70
22322;BMP180;11328;53.928;18.522;2023-05-29T08:36:05;100790.00;;;23.10
22322;BMP180;11328;53.928;18.522;2023-05-29T08:38:33;100776.00;;;23.60
22322;BMP180;11328;53.928;18.522;2023-05-29T08:41:00;100802.00;;;23.60
22322;BMP180;11328;53.928;18.522;2023-05-29T08:43:32;100799.00;;;22.70
22322;BMP180;11328;53.928;18.522;2023-05-29T08:46:02;100813.00;;;22.60
22322;BMP180;11328;53.928;18.522;2023-05-29T08:48:30;100785.00;;;22.50
22322;BMP180;11328;53.928;18.522;2023-05-29T08:50:59;100790.00;;;22.40
22322;BMP180;11328;53.928;18.522;2023-05-29T08:53:29;100805.00;;;22.50
22322;BMP180;11328;53.928;18.522;2023-05-29T08:55:58;100791.00;;;23.00
22322;BMP180;11328;53.928;18.522;2023-05-29T08:58:26;100798.00;;;22.90
22322;BMP180;11328;53.928;18.522;2023-05-29T09:00:53;100788.00;;;23.20
22322;BMP180;11328;53.928;18.522;2023-05-29T09:03:22;100781.00;;;23.40
22322;BMP180;11328;53.928;18.522;2023-05-29T09:05:50;100779.00;;;23.90
22322;BMP180;11328;53.928;18.522;2023-05-29T09:08:17;100779.00;;;24.40
22322;BMP180;11328;53.928;18.522;2023-05-29T09:10:45;100810.00;;;23.80
22322;BMP180;11328;53.928;18.522;2023-05-29T09:13:12;100810.00;;;23.00
22322;BMP180;11328;53.928;18.522;2023-05-29T09:15:41;100789.00;;;23.20
22322;BMP180;11328;53.928;18.522;2023-05-29T09:18:11;100796.00;;;23.60
22322;BMP180;11328;53.928;18.522;2023-05-29T09:20:39;100792.00;;;24.40
22322;BMP180;11328;53.928;18.522;2023-05-29T09:23:08;100796.00;;;24.50
22322;BMP180;11328;53.928;18.522;2023-05-29T09:25:41;100815.00;;;23.90
22322;BMP180;11328;53.928;18.522;2023-05-29T09:28:11;100821.00;;;23.10
22322;BMP180;11328;53.928;18.522;2023-05-29T09:30:46;100801.00;;;23.10
22322;BMP180;11328;53.928;18.522;2023-05-29T09:33:15;100792.00;;;23.60
22322;BMP180;11328;53.928;18.522;2023-05-29T09:35:49;100801.00;;;24.00
22322;BMP180;11328;53.928;18.522;2023-05-29T09:38:18;100797.00;;;24.00
22322;BMP180;11328;53.928;18.522;2023-05-29T09:40:48;100800.00;;;24.10
22322;BMP180;11328;53.928;18.522;2023-05-29T09:43:17;100805.00;;;24.40
22322;BMP180;11328;53.928;18.522;2023-05-29T09:45:49;100804.00;;;23.50
22322;BMP180;11328;53.928;18.522;2023-05-29T09:48:22;100806.00;;;23.90
22322;BMP180;11328;53.928;18.522;2023-05-29T09:50:49;100812.00;;;24.20
22322;BMP180;11328;53.928;18.522;2023-05-29T09:53:22;100814.00;;;23.50
22322;BMP180;11328;53.928;18.522;2023-05-29T09:55:53;100828.00;;;22.80
22322;BMP180;11328;53.928;18.522;2023-05-29T09:58:22;100814.00;;;23.10
22322;BMP180;11328;53.928;18.522;2023-05-29T10:00:51;100806.00;;;23.90
22322;BMP180;11328;53.928;18.522;2023-05-29T10:03:19;100809.00;;;24.30
22322;BMP180;11328;53.928;18.522;2023-05-29T10:05:55;100804.00;;;23.80
22322;BMP180;11328;53.928;18.522;2023-05-29T10:08:27;100802.00;;;24.10
22322;BMP180;11328;53.928;18.522;2023-05-29T10:11:01;100828.00;;;23.70
22322;BMP180;11328;53.928;18.522;2023-05-29T10:13:37;100815.00;;;23.60
22322;BMP180;11328;53.928;18.522;2023-05-29T10:16:08;100814.00;;;23.70
22322;BMP180;11328;53.928;18.522;2023-05-29T10:18:42;100814.00;;;23.40
22322;BMP180;11328;53.928;18.522;2023-05-29T10:21:12;100816.00;;;23.30
22322;BMP180;11328;53.928;18.522;2023-05-29T10:23:46;100807.00;;;24.40
22322;BMP180;11328;53.928;18.522;2023-05-29T10:26:24;100797.00;;;24.90
22322;BMP180;11328;53.928;18.522;2023-05-29T10:32:37;100797.00;;;24.80
22322;BMP180;11328;53.928;18.522;2023-05-29T10:35:20;100793.00;;;25.00
22322;BMP180;11328;53.928;18.522;2023-05-29T10:38:11;100787.00;;;25.30
22322;BMP180;11328;53.928;18.522;2023-05-29T10:40:40;100789.00;;;25.20
22322;BMP180;11328;53.928;18.522;2023-05-29T10:43:07;100811.00;;;24.70
22322;BMP180;11328;53.928;18.522;2023-05-29T10:50:48;100809.00;;;24.40
22322;BMP180;11328;53.928;18.522;2023-05-29T10:53:23;100797.00;;;24.30
22322;BMP180;11328;53.928;18.522;2023-05-29T10:55:50;100787.00;;;24.70
22322;BMP180;11328;53.928;18.522;2023-05-29T10:58:23;100791.00;;;24.30
22322;BMP180;11328;53.928;18.522;2023-05-29T11:00:53;100795.00;;;24.20
22322;BMP180;11328;53.928;18.522;2023-05-29T11:03:24;100804.00;;;24.00
22322;BMP180;11328;53.928;18.522;2023-05-29T11:06:17;100802.00;;;23.70
22322;BMP180;11328;53.928;18.522;2023-05-29T11:08:56;100801.00;;;24.00
22322;BMP180;11328;53.928;18.522;2023-05-29T11:11:33;100793.00;;;24.20
22322;BMP180;11328;53.928;18.522;2023-05-29T11:14:07;100775.00;;;24.30
22322;BMP180;11328;53.928;18.522;2023-05-29T11:19:07;100776.00;;;24.80
22322;BMP180;11328;53.928;18.522;2023-05-29T11:21:56;100778.00;;;24.60
22322;BMP180;11328;53.928;18.522;2023-05-29T11:24:27;100782.00;;;24.50
22322;BMP180;11328;53.928;18.522;2023-05-29T11:26:57;100772.00;;;24.60
22322;BMP180;11328;53.928;18.522;2023-05-29T11:29:28;100780.00;;;24.40
22322;BMP180;11328;53.928;18.522;2023-05-29T11:32:06;100776.00;;;24.80
22322;BMP180;11328;53.928;18.522;2023-05-29T11:34:41;100774.00;;;24.70
22322;BMP180;11328;53.928;18.522;2023-05-29T11:37:08;100786.00;;;24.70
22322;BMP180;11328;53.928;18.522;2023-05-29T11:39:38;100770.00;;;24.90
22322;BMP180;11328;53.928;18.522;2023-05-29T11:42:07;100768.00;;;24.50
22322;BMP180;11328;53.928;18.522;2023-05-29T11:44:34;100772.00;;;24.50
22322;BMP180;11328;53.928;18.522;2023-05-29T11:47:06;100767.00;;;24.50
22322;BMP180;11328;53.928;18.522;2023-05-29T11:49:36;100746.00;;;24.60
22322;BMP180;11328;53.928;18.522;2023-05-29T11:52:13;100761.00;;;24.50
22322;BMP180;11328;53.928;18.522;2023-05-29T11:54:44;100758.00;;;24.60
22322;BMP180;11328;53.928;18.522;2023-05-29T11:57:22;100764.00;;;24.80
22322;BMP180;11328;53.928;18.522;2023-05-29T11:59:50;100758.00;;;25.00
22322;BMP180;11328;53.928;18.522;2023-05-29T12:02:19;100760.00;;;24.90
22322;BMP180;11328;53.928;18.522;2023-05-29T12:05:03;100770.00;;;25.50
22322;BMP180;11328;53.928;18.522;2023-05-29T12:07:31;100762.00;;;25.40
22322;BMP180;11328;53.928;18.522;2023-05-29T12:10:14;100774.00;;;25.60
22322;BMP180;11328;53.928;18.522;2023-05-29T12:12:59;100741.00;;;25.30
22322;BMP180;11328;53.928;18.522;2023-05-29T12:15:28;100773.00;;;25.70
22322;BMP180;11328;53.928;18.522;2023-05-29T12:17:56;100768.00;;;25.70
22322;BMP180;11328;53.928;18.522;2023-05-29T12:20:25;100757.00;;;25.50
22322;BMP180;11328;53.928;18.522;2023-05-29T12:23:01;100750.00;;;26.00
22322;BMP180;11328;53.928;18.522;2023-05-29T12:25:29;100760.00;;;26.00
22322;BMP180;11328;53.928;18.522;2023-05-29T12:27:57;100767.00;;;26.10
22322;BMP180;11328;53.928;18.522;2023-05-29T12:30:25;100760.00;;;26.10
22322;BMP180;11328;53.928;18.522;2023-05-29T12:32:56;100761.00;;;26.00
22322;BMP180;11328;53.928;18.522;2023-05-29T12:35:27;100758.00;;;25.90
22322;BMP180;11328;53.928;18.522;2023-05-29T12:40:27;100758.00;;;25.40
22322;BMP180;11328;53.928;18.522;2023-05-29T12:42:59;100745.00;;;25.40
22322;BMP180;11328;53.928;18.522;2023-05-29T12:45:30;100753.00;;;25.10
22322;BMP180;11328;53.928;18.522;2023-05-29T12:48:04;100759.00;;;25.20
22322;BMP180;11328;53.928;18.522;2023-05-29T12:50:38;100744.00;;;25.30
22322;BMP180;11328;53.928;18.522;2023-05-29T12:53:15;100753.00;;;25.30
22322;BMP180;11328;53.928;18.522;2023-05-29T12:55:44;100753.00;;;25.00
22322;BMP180;11328;53.928;18.522;2023-05-29T12:58:14;100752.00;;;24.90
22322;BMP180;11328;53.928;18.522;2023-05-29T13:00:45;100749.00;;;24.90
22322;BMP180;11328;53.928;18.522;2023-05-29T13:03:13;100748.00;;;24.60
22322;BMP180;11328;53.928;18.522;2023-05-29T13:05:41;100744.00;;;24.50
22322;BMP180;11328;53.928;18.522;2023-05-29T13:08:08;100748.00;;;24.70
22322;BMP180;11328;53.928;18.522;2023-05-29T13:10:36;100749.00;;;24.40
22322;BMP180;11328;53.928;18.522;2023-05-29T13:13:03;100747.00;;;24.10
22322;BMP180;11328;53.928;18.522;2023-05-29T13:15:34;100744.00;;;24.30
22322;BMP180;11328;53.928;18.522;2023-05-29T13:18:01;100747.00;;;24.50
22322;BMP180;11328;53.928;18.522;2023-05-29T13:20:29;100736.00;;;24.90
22322;BMP180;11328;53.928;18.522;2023-05-29T13:22:57;100723.00;;;25.10
22322;BMP180;11328;53.928;18.522;2023-05-29T13:25:24;100735.00;;;25.10
22322;BMP180;11328;53.928;18.522;2023-05-29T13:27:53;100737.00;;;25.20
22322;BMP180;11328;53.928;18.522;2023-05-29T13:30:21;100738.00;;;24.90
22322;BMP180;11328;53.928;18.522;2023-05-29T13:32:50;100725.00;;;24.80
22322;BMP180;11328;53.928;18.522;2023-05-29T13:35:19;100734.00;;;24.30
22322;BMP180;11328;53.928;18.522;2023-05-29T13:37:46;100733.00;;;24.40
22322;BMP180;11328;53.928;18.522;2023-05-29T13:40:14;100739.00;;;24.30
22322;BMP180;11328;53.928;18.522;2023-05-29T13:42:41;100731.00;;;24.40
22322;BMP180;11328;53.928;18.522;2023-05-29T13:45:09;100732.00;;;24.30
22322;BMP180;11328;53.928;18.522;2023-05-29T13:47:36;100723.00;;;24.00
22322;BMP180;11328;53.928;18.522;2023-05-29T13:50:04;100735.00;;;24.00
22322;BMP180;11328;53.928;18.522;2023-05-29T13:52:32;100734.00;;;24.00
22322;BMP180;11328;53.928;18.522;2023-05-29T13:55:02;100732.00;;;24.00
22322;BMP180;11328;53.928;18.522;2023-05-29T13:57:35;100730.00;;;23.80
22322;BMP180;11328;53.928;18.522;2023-05-29T14:00:07;100723.00;;;24.20
22322;BMP180;11328;53.928;18.522;2023-05-29T14:02:35;100730.00;;;24.50
22322;BMP180;11328;53.928;18.522;2023-05-29T14:05:03;100727.00;;;24.70
22322;BMP180;11328;53.928;18.522;2023-05-29T14:07:30;100733.00;;;24.80
22322;BMP180;11328;53.928;18.522;2023-05-29T14:09:57;100727.00;;;25.00
22322;BMP180;11328;53.928;18.522;2023-05-29T14:12:24;100722.00;;;25.00
22322;BMP180;11328;53.928;18.522;2023-05-29T14:14:52;100727.00;;;25.10
22322;BMP180;11328;53.928;18.522;2023-05-29T14:17:19;100725.00;;;25.10
22322;BMP180;11328;53.928;18.522;2023-05-29T14:19:46;100727.00;;;25.20
22322;BMP180;11328;53.928;18.522;2023-05-29T14:22:14;100729.00;;;24.90